KLSV/LSV METAR and TAF weather

Enter ICAO airport designator
Station Type Date Time Source
KLSV METAR 2020/01/20 18:58 UTC NOAA

KLSV 201858Z AUTO 34005KT 10SM SCT180 SCT200 15/M04 A3016 RMK AO2 SLP208 T01491039 $


Station Type Date Time Source
KLSV Decoded METAR 2020/01/20 18:58 UTC NOAA

Nellis Air Force Base, NV, United States (KLSV) 36-14N 115-02W
Jan 20, 2020 - 01:58 PM EST / 2020.01.20 1858 UTC
Wind: from the NNW (340 degrees) at 6 MPH (5 KT):0
Visibility: 10 mile(s):0
Sky conditions: partly cloudy
Temperature: 58.8 F (14.9 C)
Dew Point: 25.0 F (-3.9 C)
Relative Humidity: 27%
Pressure (altimeter): 30.16 in. Hg (1021 hPa)
ob: KLSV 201858Z AUTO 34005KT 10SM SCT180 SCT200 15/M04 A3016 RMK AO2 SLP208 T01491039
cycle: 19

Station Type Date Time Source
KLSV TAF 2020/01/20 15:57 UTC NOAA

TAF TAF KLSV 201500Z 2015/2121 01009KT 9999 BKN170 QNH3008INS
BECMG 2102/2103 03008KT 9999 BKN120 OVC140 QNH3005INS TX18/2023Z TN04/2113Z

Example: see airport list